Terminal Aerodrome Forecast
Issued by NWS Wilmington, OH

Current Version | Previous Version | Graphics & Text | Print | Product List | Glossary On
Versions: 1 2 3 4 5 6 7 8 9 10 11 12 13 14 15 16 17 18 19 20 21
000
FTUS41 KILN 211100
TAFILN
TAF
KILN 211135Z 2112/2212 28005KT P6SM SKC
      TEMPO 2118/2121 17004KT SCT015
     FM212100 16005KT P6SM SCT250
     FM220600 18008KT P6SM BKN035
      TEMPO 2208/2209 -FZRA BKN030=

USA.gov is the U.S. government's official web portal to all federal, state and local government web resources and services.